sensor_id;sensor_type;location;lat;lon;timestamp;P1;durP1;ratioP1;P2;durP2;ratioP2
59856;SDS011;45733;52.668;6.860;2023-07-22T00:01:53;3.40;;;3.20;;
59856;SDS011;45733;52.668;6.860;2023-07-22T00:04:25;3.30;;;3.10;;
59856;SDS011;45733;52.668;6.860;2023-07-22T00:06:54;3.00;;;2.80;;
59856;SDS011;45733;52.668;6.860;2023-07-22T00:09:19;3.13;;;2.92;;
59856;SDS011;45733;52.668;6.860;2023-07-22T00:11:45;2.70;;;2.55;;
59856;SDS011;45733;52.668;6.860;2023-07-22T00:14:11;2.78;;;2.60;;
59856;SDS011;45733;52.668;6.860;2023-07-22T00:16:40;3.00;;;2.80;;
59856;SDS011;45733;52.668;6.860;2023-07-22T00:19:09;2.90;;;2.70;;
59856;SDS011;45733;52.668;6.860;2023-07-22T00:21:35;2.60;;;2.50;;
59856;SDS011;45733;52.668;6.860;2023-07-22T00:24:03;2.58;;;2.47;;
59856;SDS011;45733;52.668;6.860;2023-07-22T00:26:30;2.53;;;2.42;;
59856;SDS011;45733;52.668;6.860;2023-07-22T00:28:55;2.47;;;2.38;;
59856;SDS011;45733;52.668;6.860;2023-07-22T00:31:26;2.55;;;2.45;;
59856;SDS011;45733;52.668;6.860;2023-07-22T00:33:52;2.45;;;2.35;;
59856;SDS011;45733;52.668;6.860;2023-07-22T00:36:18;2.35;;;2.25;;
59856;SDS011;45733;52.668;6.860;2023-07-22T00:38:44;2.33;;;2.22;;
59856;SDS011;45733;52.668;6.860;2023-07-22T00:41:18;2.25;;;2.15;;
59856;SDS011;45733;52.668;6.860;2023-07-22T00:43:59;2.20;;;2.10;;
59856;SDS011;45733;52.668;6.860;2023-07-22T00:46:28;2.25;;;2.15;;
59856;SDS011;45733;52.668;6.860;2023-07-22T00:49:14;2.10;;;2.00;;
59856;SDS011;45733;52.668;6.860;2023-07-22T00:51:41;2.13;;;2.03;;
59856;SDS011;45733;52.668;6.860;2023-07-22T00:54:07;2.10;;;2.00;;
59856;SDS011;45733;52.668;6.860;2023-07-22T00:56:33;2.72;;;2.58;;
59856;SDS011;45733;52.668;6.860;2023-07-22T00:59:01;3.50;;;3.30;;
59856;SDS011;45733;52.668;6.860;2023-07-22T01:01:30;3.78;;;3.58;;
59856;SDS011;45733;52.668;6.860;2023-07-22T01:03:58;3.75;;;3.55;;
59856;SDS011;45733;52.668;6.860;2023-07-22T01:09:42;3.65;;;3.45;;
59856;SDS011;45733;52.668;6.860;2023-07-22T01:12:11;3.50;;;3.30;;
59856;SDS011;45733;52.668;6.860;2023-07-22T01:15:18;3.13;;;2.92;;
59856;SDS011;45733;52.668;6.860;2023-07-22T01:17:57;3.03;;;2.83;;
59856;SDS011;45733;52.668;6.860;2023-07-22T01:20:37;3.10;;;2.90;;
59856;SDS011;45733;52.668;6.860;2023-07-22T01:23:10;3.13;;;2.92;;
59856;SDS011;45733;52.668;6.860;2023-07-22T01:25:42;3.05;;;2.85;;
59856;SDS011;45733;52.668;6.860;2023-07-22T01:28:09;3.00;;;2.80;;
59856;SDS011;45733;52.668;6.860;2023-07-22T01:38:14;3.13;;;2.92;;
59856;SDS011;45733;52.668;6.860;2023-07-22T01:40:59;3.20;;;3.00;;
59856;SDS011;45733;52.668;6.860;2023-07-22T01:43:52;3.38;;;3.17;;
59856;SDS011;45733;52.668;6.860;2023-07-22T01:46:18;3.30;;;3.10;;
59856;SDS011;45733;52.668;6.860;2023-07-22T01:48:49;3.05;;;2.85;;
59856;SDS011;45733;52.668;6.860;2023-07-22T01:51:15;3.20;;;3.00;;
59856;SDS011;45733;52.668;6.860;2023-07-22T01:56:59;3.05;;;2.85;;
59856;SDS011;45733;52.668;6.860;2023-07-22T01:59:57;3.20;;;3.00;;
59856;SDS011;45733;52.668;6.860;2023-07-22T02:09:26;2.72;;;2.53;;
59856;SDS011;45733;52.668;6.860;2023-07-22T02:12:01;2.60;;;2.50;;
59856;SDS011;45733;52.668;6.860;2023-07-22T02:14:58;2.80;;;2.60;;
59856;SDS011;45733;52.668;6.860;2023-07-22T02:17:43;2.90;;;2.70;;
59856;SDS011;45733;52.668;6.860;2023-07-22T02:20:33;2.90;;;2.70;;
59856;SDS011;45733;52.668;6.860;2023-07-22T02:29:35;2.90;;;2.70;;
59856;SDS011;45733;52.668;6.860;2023-07-22T02:32:04;2.50;;;2.40;;
59856;SDS011;45733;52.668;6.860;2023-07-22T02:34:33;2.50;;;2.40;;
59856;SDS011;45733;52.668;6.860;2023-07-22T02:37:22;2.50;;;2.40;;
59856;SDS011;45733;52.668;6.860;2023-07-22T02:39:48;2.53;;;2.42;;
59856;SDS011;45733;52.668;6.860;2023-07-22T02:42:34;2.50;;;2.40;;
59856;SDS011;45733;52.668;6.860;2023-07-22T02:49:01;2.50;;;2.40;;
59856;SDS011;45733;52.668;6.860;2023-07-22T02:51:33;2.50;;;2.40;;
59856;SDS011;45733;52.668;6.860;2023-07-22T02:54:26;2.75;;;2.58;;
59856;SDS011;45733;52.668;6.860;2023-07-22T02:57:01;2.50;;;2.40;;
59856;SDS011;45733;52.668;6.860;2023-07-22T02:59:30;2.40;;;2.30;;
59856;SDS011;45733;52.668;6.860;2023-07-22T03:02:56;2.50;;;2.40;;
59856;SDS011;45733;52.668;6.860;2023-07-22T03:05:33;2.50;;;2.40;;
59856;SDS011;45733;52.668;6.860;2023-07-22T03:08:05;2.50;;;2.40;;
59856;SDS011;45733;52.668;6.860;2023-07-22T03:18:04;2.40;;;2.30;;
59856;SDS011;45733;52.668;6.860;2023-07-22T03:20:41;2.50;;;2.40;;
59856;SDS011;45733;52.668;6.860;2023-07-22T03:23:23;2.30;;;2.20;;
59856;SDS011;45733;52.668;6.860;2023-07-22T03:25:54;1.92;;;1.83;;
59856;SDS011;45733;52.668;6.860;2023-07-22T03:28:41;1.77;;;1.67;;
59856;SDS011;45733;52.668;6.860;2023-07-22T03:31:54;1.80;;;1.70;;
59856;SDS011;45733;52.668;6.860;2023-07-22T03:34:58;1.80;;;1.70;;
59856;SDS011;45733;52.668;6.860;2023-07-22T03:40:49;1.90;;;1.80;;
59856;SDS011;45733;52.668;6.860;2023-07-22T03:43:24;1.80;;;1.70;;
59856;SDS011;45733;52.668;6.860;2023-07-22T03:51:54;1.80;;;1.70;;
59856;SDS011;45733;52.668;6.860;2023-07-22T03:54:26;1.75;;;1.65;;
59856;SDS011;45733;52.668;6.860;2023-07-22T03:56:52;1.75;;;1.65;;
59856;SDS011;45733;52.668;6.860;2023-07-22T03:59:29;1.73;;;1.63;;
59856;SDS011;45733;52.668;6.860;2023-07-22T04:08:00;1.75;;;1.65;;
59856;SDS011;45733;52.668;6.860;2023-07-22T04:10:29;1.63;;;1.52;;
59856;SDS011;45733;52.668;6.860;2023-07-22T04:13:01;1.60;;;1.50;;
59856;SDS011;45733;52.668;6.860;2023-07-22T04:15:32;1.63;;;1.52;;
59856;SDS011;45733;52.668;6.860;2023-07-22T04:18:56;1.67;;;1.58;;
59856;SDS011;45733;52.668;6.860;2023-07-22T04:21:28;1.52;;;1.42;;
59856;SDS011;45733;52.668;6.860;2023-07-22T04:23:57;1.52;;;1.42;;
59856;SDS011;45733;52.668;6.860;2023-07-22T04:26:35;1.60;;;1.50;;
59856;SDS011;45733;52.668;6.860;2023-07-22T04:29:13;1.52;;;1.42;;
59856;SDS011;45733;52.668;6.860;2023-07-22T04:31:42;1.52;;;1.42;;
59856;SDS011;45733;52.668;6.860;2023-07-22T04:34:13;1.50;;;1.40;;
59856;SDS011;45733;52.668;6.860;2023-07-22T04:37:39;1.40;;;1.30;;
59856;SDS011;45733;52.668;6.860;2023-07-22T04:40:01;1.60;;;1.50;;
59856;SDS011;45733;52.668;6.860;2023-07-22T04:42:41;1.55;;;1.45;;
59856;SDS011;45733;52.668;6.860;2023-07-22T04:45:19;1.50;;;1.40;;
59856;SDS011;45733;52.668;6.860;2023-07-22T04:47:45;1.30;;;1.30;;
59856;SDS011;45733;52.668;6.860;2023-07-22T04:50:23;1.50;;;1.40;;
59856;SDS011;45733;52.668;6.860;2023-07-22T04:52:55;1.50;;;1.40;;
59856;SDS011;45733;52.668;6.860;2023-07-22T04:55:21;1.30;;;1.30;;
59856;SDS011;45733;52.668;6.860;2023-07-22T04:57:52;1.20;;;1.20;;
59856;SDS011;45733;52.668;6.860;2023-07-22T05:00:22;1.33;;;1.30;;
59856;SDS011;45733;52.668;6.860;2023-07-22T05:02:51;1.30;;;1.30;;
59856;SDS011;45733;52.668;6.860;2023-07-22T05:05:27;1.30;;;1.30;;
59856;SDS011;45733;52.668;6.860;2023-07-22T05:10:51;1.33;;;1.33;;
59856;SDS011;45733;52.668;6.860;2023-07-22T05:13:33;1.30;;;1.30;;
59856;SDS011;45733;52.668;6.860;2023-07-22T05:16:02;1.20;;;1.20;;
59856;SDS011;45733;52.668;6.860;2023-07-22T05:18:38;1.20;;;1.20;;
59856;SDS011;45733;52.668;6.860;2023-07-22T05:21:07;1.23;;;1.23;;
59856;SDS011;45733;52.668;6.860;2023-07-22T05:23:42;1.25;;;1.25;;
59856;SDS011;45733;52.668;6.860;2023-07-22T05:26:08;1.17;;;1.17;;
59856;SDS011;45733;52.668;6.860;2023-07-22T05:28:34;1.20;;;1.20;;
59856;SDS011;45733;52.668;6.860;2023-07-22T05:31:08;1.23;;;1.23;;
59856;SDS011;45733;52.668;6.860;2023-07-22T05:33:43;1.20;;;1.20;;
59856;SDS011;45733;52.668;6.860;2023-07-22T05:36:21;1.20;;;1.20;;
59856;SDS011;45733;52.668;6.860;2023-07-22T05:38:50;1.20;;;1.20;;
59856;SDS011;45733;52.668;6.860;2023-07-22T05:41:25;1.27;;;1.27;;
59856;SDS011;45733;52.668;6.860;2023-07-22T05:43:57;1.23;;;1.23;;
59856;SDS011;45733;52.668;6.860;2023-07-22T05:46:48;1.30;;;1.30;;
59856;SDS011;45733;52.668;6.860;2023-07-22T05:49:20;1.25;;;1.25;;
59856;SDS011;45733;52.668;6.860;2023-07-22T05:51:49;1.30;;;1.30;;
59856;SDS011;45733;52.668;6.860;2023-07-22T05:54:27;1.33;;;1.30;;
59856;SDS011;45733;52.668;6.860;2023-07-22T05:56:55;1.30;;;1.30;;
59856;SDS011;45733;52.668;6.860;2023-07-22T05:59:36;1.45;;;1.38;;
59856;SDS011;45733;52.668;6.860;2023-07-22T06:02:23;1.27;;;1.27;;
59856;SDS011;45733;52.668;6.860;2023-07-22T06:04:51;1.30;;;1.30;;
59856;SDS011;45733;52.668;6.860;2023-07-22T06:07:30;1.30;;;1.30;;
59856;SDS011;45733;52.668;6.860;2023-07-22T06:09:56;1.30;;;1.30;;
59856;SDS011;45733;52.668;6.860;2023-07-22T06:12:24;1.30;;;1.30;;
59856;SDS011;45733;52.668;6.860;2023-07-22T06:14:53;1.20;;;1.20;;
59856;SDS011;45733;52.668;6.860;2023-07-22T06:17:22;1.35;;;1.33;;
59856;SDS011;45733;52.668;6.860;2023-07-22T06:20:07;1.30;;;1.30;;
59856;SDS011;45733;52.668;6.860;2023-07-22T06:22:39;1.30;;;1.30;;
59856;SDS011;45733;52.668;6.860;2023-07-22T06:25:21;1.30;;;1.30;;
59856;SDS011;45733;52.668;6.860;2023-07-22T06:27:55;1.30;;;1.30;;
59856;SDS011;45733;52.668;6.860;2023-07-22T06:30:36;1.30;;;1.30;;
59856;SDS011;45733;52.668;6.860;2023-07-22T06:33:05;1.30;;;1.30;;
59856;SDS011;45733;52.668;6.860;2023-07-22T06:35:59;1.30;;;1.30;;
59856;SDS011;45733;52.668;6.860;2023-07-22T06:41:57;1.20;;;1.20;;
59856;SDS011;45733;52.668;6.860;2023-07-22T06:44:47;1.30;;;1.30;;
59856;SDS011;45733;52.668;6.860;2023-07-22T06:50:24;1.20;;;1.20;;
59856;SDS011;45733;52.668;6.860;2023-07-22T06:53:13;1.30;;;1.30;;
59856;SDS011;45733;52.668;6.860;2023-07-22T06:55:40;1.20;;;1.20;;
59856;SDS011;45733;52.668;6.860;2023-07-22T06:58:21;1.30;;;1.30;;
59856;SDS011;45733;52.668;6.860;2023-07-22T07:01:01;1.30;;;1.30;;
59856;SDS011;45733;52.668;6.860;2023-07-22T07:03:42;1.40;;;1.30;;
59856;SDS011;45733;52.668;6.860;2023-07-22T07:10:19;1.20;;;1.20;;
59856;SDS011;45733;52.668;6.860;2023-07-22T07:14:02;1.20;;;1.20;;
59856;SDS011;45733;52.668;6.860;2023-07-22T07:23:50;1.10;;;1.10;;
59856;SDS011;45733;52.668;6.860;2023-07-22T07:29:20;1.13;;;1.13;;
59856;SDS011;45733;52.668;6.860;2023-07-22T07:31:55;1.50;;;1.40;;
59856;SDS011;45733;52.668;6.860;2023-07-22T07:34:21;1.50;;;1.40;;
59856;SDS011;45733;52.668;6.860;2023-07-22T07:36:59;1.50;;;1.40;;
59856;SDS011;45733;52.668;6.860;2023-07-22T07:39:35;1.70;;;1.60;;
59856;SDS011;45733;52.668;6.860;2023-07-22T07:42:58;1.65;;;1.55;;
59856;SDS011;45733;52.668;6.860;2023-07-22T07:45:24;1.65;;;1.55;;
59856;SDS011;45733;52.668;6.860;2023-07-22T07:47:53;1.70;;;1.60;;
59856;SDS011;45733;52.668;6.860;2023-07-22T07:50:19;1.80;;;1.70;;
59856;SDS011;45733;52.668;6.860;2023-07-22T07:52:44;1.90;;;1.80;;
59856;SDS011;45733;52.668;6.860;2023-07-22T07:55:13;2.08;;;1.98;;
59856;SDS011;45733;52.668;6.860;2023-07-22T08:01:02;2.05;;;1.95;;
59856;SDS011;45733;52.668;6.860;2023-07-22T08:06:38;2.50;;;2.40;;
59856;SDS011;45733;52.668;6.860;2023-07-22T08:09:07;2.45;;;2.35;;
59856;SDS011;45733;52.668;6.860;2023-07-22T08:11:36;2.40;;;2.30;;
59856;SDS011;45733;52.668;6.860;2023-07-22T08:14:03;2.42;;;2.33;;
59856;SDS011;45733;52.668;6.860;2023-07-22T08:19:25;2.55;;;2.45;;
59856;SDS011;45733;52.668;6.860;2023-07-22T08:21:56;2.95;;;2.75;;
59856;SDS011;45733;52.668;6.860;2023-07-22T08:24:41;3.45;;;3.25;;
59856;SDS011;45733;52.668;6.860;2023-07-22T08:27:23;3.60;;;3.40;;
59856;SDS011;45733;52.668;6.860;2023-07-22T08:29:52;3.83;;;3.63;;
59856;SDS011;45733;52.668;6.860;2023-07-22T08:32:30;4.13;;;3.85;;
59856;SDS011;45733;52.668;6.860;2023-07-22T08:34:58;4.07;;;3.80;;
59856;SDS011;45733;52.668;6.860;2023-07-22T08:37:54;4.10;;;3.80;;
59856;SDS011;45733;52.668;6.860;2023-07-22T08:40:35;3.78;;;3.58;;
59856;SDS011;45733;52.668;6.860;2023-07-22T08:43:03;3.78;;;3.58;;
59856;SDS011;45733;52.668;6.860;2023-07-22T08:45:30;3.70;;;3.50;;
59856;SDS011;45733;52.668;6.860;2023-07-22T08:48:05;3.53;;;3.33;;
59856;SDS011;45733;52.668;6.860;2023-07-22T08:51:20;3.20;;;3.00;;
59856;SDS011;45733;52.668;6.860;2023-07-22T08:56:53;3.42;;;3.22;;
59856;SDS011;45733;52.668;6.860;2023-07-22T08:59:20;3.30;;;3.10;;
59856;SDS011;45733;52.668;6.860;2023-07-22T09:01:55;3.50;;;3.30;;
59856;SDS011;45733;52.668;6.860;2023-07-22T09:04:24;3.05;;;2.85;;
59856;SDS011;45733;52.668;6.860;2023-07-22T09:06:56;2.90;;;2.70;;
59856;SDS011;45733;52.668;6.860;2023-07-22T09:12:18;2.65;;;2.53;;
59856;SDS011;45733;52.668;6.860;2023-07-22T09:15:16;2.67;;;2.55;;
59856;SDS011;45733;52.668;6.860;2023-07-22T09:18:06;2.80;;;2.60;;
59856;SDS011;45733;52.668;6.860;2023-07-22T09:20:32;2.40;;;2.30;;
59856;SDS011;45733;52.668;6.860;2023-07-22T09:22:59;2.50;;;2.40;;
59856;SDS011;45733;52.668;6.860;2023-07-22T09:25:26;2.30;;;2.20;;
59856;SDS011;45733;52.668;6.860;2023-07-22T09:28:01;2.42;;;2.33;;
59856;SDS011;45733;52.668;6.860;2023-07-22T09:30:36;2.60;;;2.50;;
59856;SDS011;45733;52.668;6.860;2023-07-22T09:33:04;2.25;;;2.15;;
59856;SDS011;45733;52.668;6.860;2023-07-22T09:38:10;2.30;;;2.20;;
59856;SDS011;45733;52.668;6.860;2023-07-22T09:40:42;2.38;;;2.28;;
59856;SDS011;45733;52.668;6.860;2023-07-22T09:43:20;2.28;;;2.17;;
59856;SDS011;45733;52.668;6.860;2023-07-22T09:46:05;2.15;;;2.05;;
59856;SDS011;45733;52.668;6.860;2023-07-22T09:48:44;2.03;;;1.92;;
59856;SDS011;45733;52.668;6.860;2023-07-22T09:51:19;2.10;;;2.00;;
59856;SDS011;45733;52.668;6.860;2023-07-22T09:54:01;2.20;;;2.10;;
59856;SDS011;45733;52.668;6.860;2023-07-22T09:56:45;2.30;;;2.20;;
59856;SDS011;45733;52.668;6.860;2023-07-22T09:59:12;2.47;;;2.30;;
59856;SDS011;45733;52.668;6.860;2023-07-22T10:01:39;2.40;;;2.30;;
59856;SDS011;45733;52.668;6.860;2023-07-22T10:04:05;2.40;;;2.30;;
59856;SDS011;45733;52.668;6.860;2023-07-22T10:06:32;2.30;;;2.20;;
59856;SDS011;45733;52.668;6.860;2023-07-22T10:09:03;2.30;;;2.20;;
59856;SDS011;45733;52.668;6.860;2023-07-22T10:11:33;2.38;;;2.28;;
59856;SDS011;45733;52.668;6.860;2023-07-22T10:14:00;2.20;;;2.10;;
59856;SDS011;45733;52.668;6.860;2023-07-22T10:16:41;2.30;;;2.20;;
59856;SDS011;45733;52.668;6.860;2023-07-22T10:19:07;2.20;;;2.10;;
59856;SDS011;45733;52.668;6.860;2023-07-22T10:21:37;2.30;;;2.20;;
59856;SDS011;45733;52.668;6.860;2023-07-22T10:24:03;2.20;;;2.10;;
59856;SDS011;45733;52.668;6.860;2023-07-22T10:26:30;2.30;;;2.20;;
59856;SDS011;45733;52.668;6.860;2023-07-22T10:31:46;2.38;;;2.28;;
59856;SDS011;45733;52.668;6.860;2023-07-22T10:34:27;2.30;;;2.20;;
59856;SDS011;45733;52.668;6.860;2023-07-22T10:36:55;2.20;;;2.10;;
59856;SDS011;45733;52.668;6.860;2023-07-22T10:39:42;2.30;;;2.20;;
59856;SDS011;45733;52.668;6.860;2023-07-22T10:46:10;2.40;;;2.30;;
59856;SDS011;45733;52.668;6.860;2023-07-22T10:48:39;2.40;;;2.30;;
59856;SDS011;45733;52.668;6.860;2023-07-22T10:51:15;2.30;;;2.20;;
59856;SDS011;45733;52.668;6.860;2023-07-22T10:53:59;2.40;;;2.30;;
59856;SDS011;45733;52.668;6.860;2023-07-22T10:56:42;2.50;;;2.40;;
59856;SDS011;45733;52.668;6.860;2023-07-22T10:59:11;2.50;;;2.40;;
59856;SDS011;45733;52.668;6.860;2023-07-22T11:01:38;2.50;;;2.40;;
59856;SDS011;45733;52.668;6.860;2023-07-22T11:04:30;3.03;;;2.83;;
59856;SDS011;45733;52.668;6.860;2023-07-22T11:07:02;3.00;;;2.80;;
59856;SDS011;45733;52.668;6.860;2023-07-22T11:15:03;2.60;;;2.50;;
59856;SDS011;45733;52.668;6.860;2023-07-22T11:17:31;2.63;;;2.53;;
59856;SDS011;45733;52.668;6.860;2023-07-22T11:19:58;2.53;;;2.42;;
59856;SDS011;45733;52.668;6.860;2023-07-22T11:22:25;2.75;;;2.60;;
59856;SDS011;45733;52.668;6.860;2023-07-22T11:24:50;2.88;;;2.67;;
59856;SDS011;45733;52.668;6.860;2023-07-22T11:27:20;2.88;;;2.67;;
59856;SDS011;45733;52.668;6.860;2023-07-22T11:29:50;3.00;;;2.80;;
59856;SDS011;45733;52.668;6.860;2023-07-22T11:32:16;2.90;;;2.70;;
59856;SDS011;45733;52.668;6.860;2023-07-22T11:34:52;2.97;;;2.78;;
59856;SDS011;45733;52.668;6.860;2023-07-22T11:37:29;3.17;;;2.97;;
59856;SDS011;45733;52.668;6.860;2023-07-22T11:40:18;3.10;;;2.90;;
59856;SDS011;45733;52.668;6.860;2023-07-22T11:42:47;3.03;;;2.83;;
59856;SDS011;45733;52.668;6.860;2023-07-22T11:45:16;2.83;;;2.63;;
59856;SDS011;45733;52.668;6.860;2023-07-22T11:47:42;2.78;;;2.60;;
59856;SDS011;45733;52.668;6.860;2023-07-22T11:50:09;2.75;;;2.60;;
59856;SDS011;45733;52.668;6.860;2023-07-22T11:52:35;2.60;;;2.50;;
59856;SDS011;45733;52.668;6.860;2023-07-22T11:55:04;2.80;;;2.60;;
59856;SDS011;45733;52.668;6.860;2023-07-22T11:57:30;2.80;;;2.60;;
59856;SDS011;45733;52.668;6.860;2023-07-22T11:59:56;2.67;;;2.55;;
59856;SDS011;45733;52.668;6.860;2023-07-22T12:02:35;2.55;;;2.45;;
59856;SDS011;45733;52.668;6.860;2023-07-22T12:05:01;2.50;;;2.40;;
59856;SDS011;45733;52.668;6.860;2023-07-22T12:07:34;2.53;;;2.42;;
59856;SDS011;45733;52.668;6.860;2023-07-22T12:10:02;2.60;;;2.50;;
59856;SDS011;45733;52.668;6.860;2023-07-22T12:17:55;2.50;;;2.40;;
59856;SDS011;45733;52.668;6.860;2023-07-22T12:20:25;2.60;;;2.50;;
59856;SDS011;45733;52.668;6.860;2023-07-22T12:22:56;2.88;;;2.70;;
59856;SDS011;45733;52.668;6.860;2023-07-22T12:25:25;2.67;;;2.55;;
59856;SDS011;45733;52.668;6.860;2023-07-22T12:27:51;2.58;;;2.47;;
59856;SDS011;45733;52.668;6.860;2023-07-22T12:30:17;2.88;;;2.67;;
59856;SDS011;45733;52.668;6.860;2023-07-22T12:32:46;2.83;;;2.63;;
59856;SDS011;45733;52.668;6.860;2023-07-22T12:35:12;2.75;;;2.58;;
59856;SDS011;45733;52.668;6.860;2023-07-22T12:37:38;2.90;;;2.70;;
59856;SDS011;45733;52.668;6.860;2023-07-22T12:40:04;2.75;;;2.60;;
59856;SDS011;45733;52.668;6.860;2023-07-22T12:42:33;2.50;;;2.40;;
59856;SDS011;45733;52.668;6.860;2023-07-22T12:44:59;2.50;;;2.40;;
59856;SDS011;45733;52.668;6.860;2023-07-22T12:47:25;2.60;;;2.50;;
59856;SDS011;45733;52.668;6.860;2023-07-22T12:49:51;2.60;;;2.50;;
59856;SDS011;45733;52.668;6.860;2023-07-22T12:52:16;2.30;;;2.20;;
59856;SDS011;45733;52.668;6.860;2023-07-22T12:54:54;2.58;;;2.47;;
59856;SDS011;45733;52.668;6.860;2023-07-22T12:57:20;2.47;;;2.38;;
59856;SDS011;45733;52.668;6.860;2023-07-22T12:59:46;2.67;;;2.55;;
59856;SDS011;45733;52.668;6.860;2023-07-22T13:02:12;2.70;;;2.60;;
59856;SDS011;45733;52.668;6.860;2023-07-22T13:04:40;2.60;;;2.50;;
59856;SDS011;45733;52.668;6.860;2023-07-22T13:07:06;2.65;;;2.53;;
59856;SDS011;45733;52.668;6.860;2023-07-22T13:09:32;2.40;;;2.30;;
59856;SDS011;45733;52.668;6.860;2023-07-22T13:12:07;2.45;;;2.35;;
59856;SDS011;45733;52.668;6.860;2023-07-22T13:14:32;2.30;;;2.20;;
59856;SDS011;45733;52.668;6.860;2023-07-22T13:16:58;2.08;;;1.98;;
59856;SDS011;45733;52.668;6.860;2023-07-22T13:19:24;2.53;;;2.42;;
59856;SDS011;45733;52.668;6.860;2023-07-22T13:21:49;2.85;;;2.65;;
59856;SDS011;45733;52.668;6.860;2023-07-22T13:24:15;2.00;;;1.90;;
59856;SDS011;45733;52.668;6.860;2023-07-22T13:26:41;1.92;;;1.83;;
59856;SDS011;45733;52.668;6.860;2023-07-22T13:29:06;1.92;;;1.83;;
59856;SDS011;45733;52.668;6.860;2023-07-22T13:31:34;1.58;;;1.48;;
59856;SDS011;45733;52.668;6.860;2023-07-22T13:33:59;1.80;;;1.70;;
59856;SDS011;45733;52.668;6.860;2023-07-22T13:36:25;1.63;;;1.52;;
59856;SDS011;45733;52.668;6.860;2023-07-22T13:38:51;1.60;;;1.50;;
59856;SDS011;45733;52.668;6.860;2023-07-22T13:41:16;2.28;;;2.10;;
59856;SDS011;45733;52.668;6.860;2023-07-22T13:43:42;1.70;;;1.60;;
59856;SDS011;45733;52.668;6.860;2023-07-22T13:46:08;1.95;;;1.85;;
59856;SDS011;45733;52.668;6.860;2023-07-22T13:48:33;1.73;;;1.63;;
59856;SDS011;45733;52.668;6.860;2023-07-22T13:51:02;1.73;;;1.63;;
59856;SDS011;45733;52.668;6.860;2023-07-22T13:53:31;1.65;;;1.55;;
59856;SDS011;45733;52.668;6.860;2023-07-22T13:55:59;1.85;;;1.75;;
59856;SDS011;45733;52.668;6.860;2023-07-22T13:58:25;1.73;;;1.63;;
59856;SDS011;45733;52.668;6.860;2023-07-22T14:00:54;1.80;;;1.70;;
59856;SDS011;45733;52.668;6.860;2023-07-22T14:03:19;1.80;;;1.70;;
59856;SDS011;45733;52.668;6.860;2023-07-22T14:05:50;1.90;;;1.80;;
59856;SDS011;45733;52.668;6.860;2023-07-22T14:08:23;2.03;;;1.92;;
59856;SDS011;45733;52.668;6.860;2023-07-22T14:10:49;2.00;;;1.90;;
59856;SDS011;45733;52.668;6.860;2023-07-22T14:13:15;2.20;;;2.10;;
59856;SDS011;45733;52.668;6.860;2023-07-22T14:15:41;2.20;;;2.10;;
59856;SDS011;45733;52.668;6.860;2023-07-22T14:18:08;2.30;;;2.20;;
59856;SDS011;45733;52.668;6.860;2023-07-22T14:20:33;2.30;;;2.20;;
59856;SDS011;45733;52.668;6.860;2023-07-22T14:22:59;2.10;;;2.00;;
59856;SDS011;45733;52.668;6.860;2023-07-22T14:25:25;2.20;;;2.10;;
59856;SDS011;45733;52.668;6.860;2023-07-22T14:27:50;2.50;;;2.40;;
59856;SDS011;45733;52.668;6.860;2023-07-22T14:30:16;2.60;;;2.50;;
59856;SDS011;45733;52.668;6.860;2023-07-22T14:32:41;2.55;;;2.45;;
59856;SDS011;45733;52.668;6.860;2023-07-22T14:35:07;2.60;;;2.50;;
59856;SDS011;45733;52.668;6.860;2023-07-22T14:37:33;2.40;;;2.30;;
59856;SDS011;45733;52.668;6.860;2023-07-22T14:40:00;2.50;;;2.40;;
59856;SDS011;45733;52.668;6.860;2023-07-22T14:42:26;2.50;;;2.40;;
59856;SDS011;45733;52.668;6.860;2023-07-22T14:44:51;2.40;;;2.30;;
59856;SDS011;45733;52.668;6.860;2023-07-22T14:47:17;2.30;;;2.20;;
59856;SDS011;45733;52.668;6.860;2023-07-22T14:49:43;2.30;;;2.20;;
59856;SDS011;45733;52.668;6.860;2023-07-22T14:52:08;2.10;;;2.00;;
59856;SDS011;45733;52.668;6.860;2023-07-22T14:54:34;1.80;;;1.70;;
59856;SDS011;45733;52.668;6.860;2023-07-22T14:56:59;1.80;;;1.70;;
59856;SDS011;45733;52.668;6.860;2023-07-22T14:59:25;1.73;;;1.63;;
59856;SDS011;45733;52.668;6.860;2023-07-22T15:01:53;1.75;;;1.65;;
59856;SDS011;45733;52.668;6.860;2023-07-22T15:04:19;1.80;;;1.70;;
59856;SDS011;45733;52.668;6.860;2023-07-22T15:06:45;1.77;;;1.67;;
59856;SDS011;45733;52.668;6.860;2023-07-22T15:09:10;1.70;;;1.60;;
59856;SDS011;45733;52.668;6.860;2023-07-22T15:11:36;1.70;;;1.60;;
59856;SDS011;45733;52.668;6.860;2023-07-22T15:14:02;1.83;;;1.73;;
59856;SDS011;45733;52.668;6.860;2023-07-22T15:16:29;1.73;;;1.63;;
59856;SDS011;45733;52.668;6.860;2023-07-22T15:18:55;1.90;;;1.80;;
59856;SDS011;45733;52.668;6.860;2023-07-22T15:21:21;1.90;;;1.80;;
59856;SDS011;45733;52.668;6.860;2023-07-22T15:23:47;1.95;;;1.85;;
59856;SDS011;45733;52.668;6.860;2023-07-22T15:26:16;1.90;;;1.80;;
59856;SDS011;45733;52.668;6.860;2023-07-22T15:28:42;1.70;;;1.60;;
59856;SDS011;45733;52.668;6.860;2023-07-22T15:31:07;2.00;;;1.90;;
59856;SDS011;45733;52.668;6.860;2023-07-22T15:33:36;2.10;;;2.00;;
59856;SDS011;45733;52.668;6.860;2023-07-22T15:36:02;2.10;;;2.00;;
59856;SDS011;45733;52.668;6.860;2023-07-22T15:38:28;2.10;;;2.00;;
59856;SDS011;45733;52.668;6.860;2023-07-22T15:40:54;2.00;;;1.90;;
59856;SDS011;45733;52.668;6.860;2023-07-22T15:43:19;2.13;;;2.03;;
59856;SDS011;45733;52.668;6.860;2023-07-22T15:45:45;2.22;;;2.13;;
59856;SDS011;45733;52.668;6.860;2023-07-22T15:48:11;2.30;;;2.20;;
59856;SDS011;45733;52.668;6.860;2023-07-22T15:50:36;2.30;;;2.20;;
59856;SDS011;45733;52.668;6.860;2023-07-22T15:53:02;2.50;;;2.40;;
59856;SDS011;45733;52.668;6.860;2023-07-22T15:55:27;2.40;;;2.30;;
59856;SDS011;45733;52.668;6.860;2023-07-22T15:57:53;2.40;;;2.30;;
59856;SDS011;45733;52.668;6.860;2023-07-22T16:00:19;2.50;;;2.40;;
59856;SDS011;45733;52.668;6.860;2023-07-22T16:02:45;2.40;;;2.30;;
59856;SDS011;45733;52.668;6.860;2023-07-22T16:05:10;2.50;;;2.40;;
59856;SDS011;45733;52.668;6.860;2023-07-22T16:07:36;2.50;;;2.40;;
59856;SDS011;45733;52.668;6.860;2023-07-22T16:10:04;2.50;;;2.40;;
59856;SDS011;45733;52.668;6.860;2023-07-22T16:12:31;2.50;;;2.40;;
59856;SDS011;45733;52.668;6.860;2023-07-22T16:14:57;2.47;;;2.38;;
59856;SDS011;45733;52.668;6.860;2023-07-22T16:17:23;2.60;;;2.50;;
59856;SDS011;45733;52.668;6.860;2023-07-22T16:19:49;2.50;;;2.40;;
59856;SDS011;45733;52.668;6.860;2023-07-22T16:22:15;2.40;;;2.30;;
59856;SDS011;45733;52.668;6.860;2023-07-22T16:24:41;2.50;;;2.40;;
59856;SDS011;45733;52.668;6.860;2023-07-22T16:27:06;2.60;;;2.50;;
59856;SDS011;45733;52.668;6.860;2023-07-22T16:29:32;2.50;;;2.40;;
59856;SDS011;45733;52.668;6.860;2023-07-22T16:31:59;2.40;;;2.30;;
59856;SDS011;45733;52.668;6.860;2023-07-22T16:34:25;2.50;;;2.40;;
59856;SDS011;45733;52.668;6.860;2023-07-22T16:36:53;2.80;;;2.60;;
59856;SDS011;45733;52.668;6.860;2023-07-22T16:39:19;2.45;;;2.35;;
59856;SDS011;45733;52.668;6.860;2023-07-22T16:41:47;2.50;;;2.40;;
59856;SDS011;45733;52.668;6.860;2023-07-22T16:44:16;2.53;;;2.42;;
59856;SDS011;45733;52.668;6.860;2023-07-22T16:46:44;2.47;;;2.38;;
59856;SDS011;45733;52.668;6.860;2023-07-22T16:49:13;2.42;;;2.33;;
59856;SDS011;45733;52.668;6.860;2023-07-22T16:51:41;2.55;;;2.45;;
59856;SDS011;45733;52.668;6.860;2023-07-22T16:54:11;2.63;;;2.53;;
59856;SDS011;45733;52.668;6.860;2023-07-22T16:56:41;2.67;;;2.55;;
59856;SDS011;45733;52.668;6.860;2023-07-22T16:59:12;2.58;;;2.47;;
59856;SDS011;45733;52.668;6.860;2023-07-22T17:01:41;2.53;;;2.42;;
59856;SDS011;45733;52.668;6.860;2023-07-22T17:04:07;2.55;;;2.45;;
59856;SDS011;45733;52.668;6.860;2023-07-22T17:06:35;2.78;;;2.60;;
59856;SDS011;45733;52.668;6.860;2023-07-22T17:09:01;2.75;;;2.58;;
59856;SDS011;45733;52.668;6.860;2023-07-22T17:11:27;2.92;;;2.72;;